Time;durP1;ratioP1;P1;durP2;ratioP2;P2;SDS_P1;SDS_P2;PMS_P1;PMS_P2;Temp;Humidity;BMP_temperature;BMP_pressure;BME280_temperature;BME280_humidity;BME280_pressure;Samples;Min_cycle;Max_cycle;Signal;HPM_P1;HPM_P2
2023/10/07 00:03:15;;;;;;;11.85;4.68;;;;;;;15.58;100.00;102025.53;5073094;28;20055;-66
2023/10/07 00:06:03;;;;;;;11.95;4.47;;;;;;;15.58;100.00;102033.78;5042010;28;20069;-66
2023/10/07 00:08:51;;;;;;;11.77;4.75;;;;;;;15.58;100.00;102035.72;5054815;28;20091;-66
2023/10/07 00:11:39;;;;;;;12.02;4.40;;;;;;;15.57;100.00;102017.59;5071052;28;20154;-66
2023/10/07 00:14:30;;;;;;;11.02;4.65;;;;;;;15.56;100.00;102011.25;5074331;28;20121;-66
2023/10/07 00:17:18;;;;;;;9.55;4.20;;;;;;;15.57;100.00;102009.34;5068820;28;20052;-62
2023/10/07 00:20:09;;;;;;;9.07;3.60;;;;;;;15.55;100.00;102006.84;5089328;28;20048;-63
2023/10/07 00:23:00;;;;;;;9.07;4.45;;;;;;;15.54;100.00;101996.97;5092495;28;20116;-62
2023/10/07 00:25:53;;;;;;;10.65;4.18;;;;;;;15.51;100.00;102011.25;5084019;28;20056;-65
2023/10/07 00:28:44;;;;;;;9.43;4.18;;;;;;;15.51;100.00;102024.97;5052246;28;20492;-62
2023/10/07 00:31:34;;;;;;;13.07;4.65;;;;;;;15.51;100.00;102008.50;5073191;28;20040;-60
2023/10/07 00:34:27;;;;;;;13.65;4.38;;;;;;;15.49;100.00;102024.41;5072130;28;20356;-65
2023/10/07 00:37:18;;;;;;;13.20;4.85;;;;;;;15.46;100.00;102024.97;5059382;28;20059;-65
2023/10/07 00:40:14;;;;;;;10.85;4.72;;;;;;;15.46;100.00;102019.47;5061617;28;20496;-67
2023/10/07 00:43:08;;;;;;;11.82;4.93;;;;;;;15.45;100.00;102017.84;5047284;28;20532;-65
2023/10/07 00:46:21;;;;;;;9.68;4.88;;;;;;;15.45;100.00;102028.81;5071469;28;20147;-66
2023/10/07 00:49:14;;;;;;;18.73;6.10;;;;;;;15.41;100.00;102028.53;5045944;28;20052;-65
2023/10/07 00:52:05;;;;;;;10.43;4.50;;;;;;;15.40;100.00;102020.56;5073246;28;20504;-66
2023/10/07 00:55:00;;;;;;;13.25;5.13;;;;;;;15.42;100.00;102032.13;5057055;28;20127;-66
2023/10/07 00:57:51;;;;;;;12.80;5.13;;;;;;;15.40;100.00;102026.06;5056672;28;20555;-65
2023/10/07 01:06:31;;;;;;;12.30;4.80;;;;;;;15.38;100.00;102012.59;5057363;28;20127;-66
2023/10/07 01:09:22;;;;;;;13.43;4.57;;;;;;;15.37;100.00;101993.63;5054736;28;20056;-66
2023/10/07 01:12:10;;;;;;;11.63;4.60;;;;;;;15.34;100.00;101986.75;5058285;28;20064;-66
2023/10/07 01:14:58;;;;;;;13.55;4.80;;;;;;;15.33;100.00;101994.19;5044965;28;20041;-65
2023/10/07 01:17:47;;;;;;;12.05;4.70;;;;;;;15.34;100.00;101992.25;5068771;28;20524;-66
2023/10/07 01:20:59;;;;;;;10.70;4.97;;;;;;;15.34;100.00;101979.38;5059530;28;20171;-66
2023/10/07 01:23:46;;;;;;;10.32;4.60;;;;;;;15.33;100.00;101985.94;5048169;28;20492;-67
2023/10/07 01:26:41;;;;;;;12.75;4.75;;;;;;;15.33;100.00;101985.94;5044661;28;20437;-65
2023/10/07 01:29:29;;;;;;;16.60;5.43;;;;;;;15.32;100.00;102011.78;5071567;28;20051;-65
2023/10/07 01:32:19;;;;;;;14.43;5.47;;;;;;;15.33;100.00;102016.16;5071891;28;20090;-66
2023/10/07 01:35:11;;;;;;;11.20;5.13;;;;;;;15.28;100.00;102013.41;5044501;28;20050;-66
2023/10/07 01:38:00;;;;;;;12.70;5.40;;;;;;;15.27;100.00;102011.75;5058114;28;20123;-66
2023/10/07 01:43:40;;;;;;;13.73;5.47;;;;;;;15.25;100.00;102004.84;5039217;28;20049;-65
2023/10/07 01:46:30;;;;;;;13.18;5.57;;;;;;;15.20;100.00;101999.34;5043655;28;20055;-66
2023/10/07 01:49:19;;;;;;;16.95;6.03;;;;;;;15.17;100.00;101997.16;5061614;28;20091;-65
2023/10/07 01:52:07;;;;;;;13.60;5.47;;;;;;;15.17;100.00;101984.25;5034929;28;20084;-66
2023/10/07 01:54:58;;;;;;;13.13;5.68;;;;;;;15.17;100.00;101977.94;5047171;28;20050;-66
2023/10/07 01:57:50;;;;;;;16.95;5.97;;;;;;;15.14;100.00;101976.56;5071092;28;20040;-66
2023/10/07 02:00:46;;;;;;;12.07;5.78;;;;;;;15.13;100.00;101983.16;5059018;28;20385;-66
2023/10/07 02:03:34;;;;;;;13.80;6.07;;;;;;;15.15;100.00;101985.63;5019561;28;20061;-65
2023/10/07 02:06:22;;;;;;;12.50;6.20;;;;;;;15.15;100.00;101986.44;5060795;28;20044;-65
2023/10/07 02:09:11;;;;;;;11.70;5.30;;;;;;;15.17;100.00;101984.25;5062755;28;20051;-66
2023/10/07 02:12:01;;;;;;;13.98;5.93;;;;;;;15.18;100.00;101985.09;5061914;28;20040;-65
2023/10/07 02:14:49;;;;;;;14.45;6.20;;;;;;;15.17;100.00;101999.91;5073756;28;20051;-65
2023/10/07 02:17:37;;;;;;;11.93;5.57;;;;;;;15.16;100.00;101990.03;5059879;28;20037;-65
2023/10/07 02:20:27;;;;;;;11.95;6.18;;;;;;;15.15;100.00;101980.94;5076265;28;20036;-67
2023/10/07 02:23:37;;;;;;;16.85;6.32;;;;;;;15.16;100.00;101979.88;5075297;28;20116;-67
2023/10/07 02:26:25;;;;;;;14.23;5.75;;;;;;;15.16;100.00;101982.63;5060998;28;20502;-65
2023/10/07 02:29:16;;;;;;;13.80;6.30;;;;;;;15.18;100.00;101980.44;5075266;28;20048;-65
2023/10/07 02:32:22;;;;;;;13.52;6.07;;;;;;;15.18;100.00;101985.91;5047345;28;20091;-65
2023/10/07 02:35:10;;;;;;;15.60;6.15;;;;;;;15.17;100.00;101984.25;5073495;28;20049;-65
2023/10/07 02:38:03;;;;;;;15.30;6.32;;;;;;;15.16;100.00;101988.09;5041340;28;20071;-65
2023/10/07 02:40:59;;;;;;;16.77;6.32;;;;;;;15.18;100.00;101998.84;5060954;28;20055;-65
2023/10/07 02:43:50;;;;;;;;;;;;;;;15.17;100.00;101991.66;5048770;28;20040;-67
2023/10/07 02:46:38;;;;;;;15.60;6.43;;;;;;;15.14;100.00;101984.81;5061772;28;19921;-66
2023/10/07 02:49:26;;;;;;;15.00;6.18;;;;;;;15.13;100.00;101996.88;5068523;28;20432;-66
2023/10/07 02:52:17;;;;;;;15.95;6.40;;;;;;;15.12;100.00;101990.56;5050502;28;20056;-67
2023/10/07 02:58:08;;;;;;;12.90;6.88;;;;;;;15.15;100.00;101989.19;5056493;28;20463;-67
2023/10/07 03:01:10;;;;;;;17.95;7.43;;;;;;;15.17;100.00;101989.75;5061699;28;20571;-66
2023/10/07 03:04:00;;;;;;;14.52;6.75;;;;;;;15.15;100.00;101991.94;5074273;28;20070;-66
2023/10/07 03:06:52;;;;;;;14.98;6.95;;;;;;;15.16;100.00;101993.59;5072814;28;20067;-65
2023/10/07 03:09:54;;;;;;;17.35;7.72;;;;;;;15.15;100.00;101986.44;5040057;28;20052;-65
2023/10/07 03:13:05;;;;;;;12.90;7.20;;;;;;;15.17;100.00;101992.50;5053886;28;20041;-66
2023/10/07 03:24:41;;;;;;;15.48;7.22;;;;;;;15.18;100.00;101991.41;5071308;28;20118;-66
2023/10/07 03:27:39;;;;;;;15.38;7.97;;;;;;;15.18;100.00;101985.09;5064389;28;20053;-65
2023/10/07 03:30:27;;;;;;;17.23;7.95;;;;;;;15.18;100.00;101985.09;5063175;28;20488;-66
2023/10/07 03:33:15;;;;;;;22.20;9.73;;;;;;;15.20;100.00;101983.72;5064176;28;20052;-64
2023/10/07 03:38:57;;;;;;;19.45;10.43;;;;;;;15.14;100.00;101973.81;5073245;28;20063;-66
2023/10/07 03:41:52;;;;;;;21.00;10.15;;;;;;;15.16;100.00;101970.81;5056606;28;20553;-66
2023/10/07 03:44:40;;;;;;;15.50;9.10;;;;;;;15.17;100.00;101973.28;5072653;28;20048;-66
2023/10/07 03:47:32;;;;;;;21.02;9.70;;;;;;;15.20;100.00;101978.25;5049795;28;20040;-66
2023/10/07 03:50:29;;;;;;;22.30;10.13;;;;;;;15.20;100.00;101972.75;5051608;28;20041;-66
2023/10/07 03:53:17;;;;;;;22.40;9.93;;;;;;;15.22;100.00;101961.47;5058593;28;20068;-65
2023/10/07 03:56:07;;;;;;;20.10;9.05;;;;;;;15.19;100.00;101962.84;5074059;28;20098;-66
2023/10/07 03:58:56;;;;;;;21.65;10.57;;;;;;;15.21;100.00;101960.66;5071963;28;20053;-66
2023/10/07 04:01:44;;;;;;;17.73;9.75;;;;;;;15.20;100.00;101959.03;5072271;28;20408;-64
2023/10/07 04:04:33;;;;;;;19.08;8.98;;;;;;;15.20;100.00;101949.94;5074413;28;20136;-66
2023/10/07 04:07:22;;;;;;;18.60;9.52;;;;;;;15.23;100.00;101950.22;5062168;28;20519;-67
2023/10/07 04:10:31;;;;;;;19.23;10.18;;;;;;;15.24;100.00;101938.16;5073072;28;20125;-66
2023/10/07 04:13:22;;;;;;;17.67;9.57;;;;;;;15.23;100.00;101939.25;5073795;28;20194;-64
2023/10/07 04:16:23;;;;;;;18.55;9.15;;;;;;;15.24;100.00;101946.38;5059296;28;20037;-65
2023/10/07 04:22:03;;;;;;;19.25;8.95;;;;;;;15.26;100.00;101954.34;5052424;28;20185;-66
2023/10/07 04:24:51;;;;;;;16.92;9.95;;;;;;;15.27;100.00;101953.25;5040918;28;20044;-65
2023/10/07 04:27:42;;;;;;;17.58;9.07;;;;;;;15.28;100.00;101960.41;5062285;28;20045;-66
2023/10/07 04:30:53;;;;;;;20.42;9.65;;;;;;;15.29;100.00;101970.28;5055759;28;20127;-65
2023/10/07 04:33:45;;;;;;;19.20;9.90;;;;;;;15.28;100.00;101966.72;5054004;28;20055;-66
2023/10/07 04:36:33;;;;;;;19.60;9.35;;;;;;;15.28;100.00;101969.47;5051539;28;20117;-65
2023/10/07 04:39:28;;;;;;;18.13;9.88;;;;;;;15.28;100.00;101968.66;5072601;28;20040;-66
2023/10/07 04:42:36;;;;;;;21.75;10.20;;;;;;;15.27;100.00;101962.34;5064959;28;20070;-65
2023/10/07 04:45:36;;;;;;;21.45;9.77;;;;;;;15.27;100.00;101966.97;5063610;28;20147;-64
2023/10/07 04:48:24;;;;;;;17.17;9.18;;;;;;;15.27;100.00;101972.47;5058461;28;20041;-65
2023/10/07 04:51:12;;;;;;;19.13;10.18;;;;;;;15.27;100.00;101978.81;5062214;28;20113;-61
2023/10/07 04:54:01;;;;;;;20.15;10.02;;;;;;;15.27;100.00;101977.97;5049378;28;20065;-58
2023/10/07 04:57:00;;;;;;;21.00;9.80;;;;;;;15.28;100.00;101985.13;5058018;28;20052;-65
2023/10/07 04:59:49;;;;;;;18.77;9.93;;;;;;;15.28;100.00;101977.69;5040765;28;20444;-64
2023/10/07 05:02:38;;;;;;;22.05;10.95;;;;;;;15.28;100.00;101974.13;5067486;28;20120;-57
2023/10/07 05:05:33;;;;;;;20.35;9.15;;;;;;;15.28;100.00;101983.19;5066697;28;20229;-57
2023/10/07 05:08:22;;;;;;;22.00;10.55;;;;;;;15.28;100.00;101982.38;5084836;28;20573;-64
2023/10/07 05:11:16;;;;;;;17.55;9.63;;;;;;;15.28;100.00;101983.19;5074903;28;20502;-65
2023/10/07 05:14:07;;;;;;;25.33;11.25;;;;;;;15.28;100.00;101974.94;5072689;28;20047;-65
2023/10/07 05:16:58;;;;;;;21.23;10.85;;;;;;;15.28;100.00;101969.47;5064923;28;20575;-65
2023/10/07 05:19:47;;;;;;;22.23;10.35;;;;;;;15.29;100.00;101962.88;5066470;28;20501;-66
2023/10/07 05:22:36;;;;;;;23.13;10.60;;;;;;;15.29;100.00;101957.38;5058304;28;20051;-66
2023/10/07 05:25:24;;;;;;;20.98;9.77;;;;;;;15.29;100.00;101960.13;5071287;28;20083;-65
2023/10/07 05:28:16;;;;;;;19.40;10.30;;;;;;;15.29;100.00;101971.09;5055876;28;20093;-65
2023/10/07 05:31:04;;;;;;;19.75;10.40;;;;;;;15.30;100.00;101961.78;5059295;28;20543;-64
2023/10/07 05:33:52;;;;;;;23.17;11.18;;;;;;;15.29;100.00;101960.13;5057546;28;20084;-65
2023/10/07 05:36:40;;;;;;;23.38;10.35;;;;;;;15.32;100.00;101959.59;5061640;28;20045;-66
2023/10/07 05:39:28;;;;;;;23.73;10.88;;;;;;;15.33;100.00;101953.00;5058089;28;20518;-65
2023/10/07 05:42:16;;;;;;;19.10;9.90;;;;;;;15.34;100.00;101953.81;5073495;28;20377;-66
2023/10/07 05:45:05;;;;;;;16.45;9.55;;;;;;;15.36;100.00;101948.06;5047561;28;20051;-66
2023/10/07 05:47:54;;;;;;;18.25;9.15;;;;;;;15.36;100.00;101957.13;5069631;28;20044;-67
2023/10/07 05:50:42;;;;;;;17.77;9.60;;;;;;;15.34;100.00;101956.56;5075375;28;20040;-65
2023/10/07 05:53:30;;;;;;;15.45;7.93;;;;;;;15.33;100.00;101944.75;5075572;28;20074;-66
2023/10/07 05:56:18;;;;;;;18.38;7.78;;;;;;;15.35;100.00;101947.25;5060854;28;20086;-66
2023/10/07 05:59:06;;;;;;;21.98;9.68;;;;;;;15.33;100.00;101954.91;5065007;28;20521;-64
2023/10/07 06:01:55;;;;;;;16.80;7.60;;;;;;;15.33;100.00;101953.00;5071120;28;20067;-66
2023/10/07 06:04:44;;;;;;;16.92;8.98;;;;;;;15.34;100.00;101956.56;5076378;28;20094;-66
2023/10/07 06:07:32;;;;;;;14.77;7.43;;;;;;;15.35;100.00;101963.72;5074103;28;20047;-65
2023/10/07 06:10:24;;;;;;;19.30;9.48;;;;;;;15.34;100.00;101973.88;5070707;28;20501;-65
2023/10/07 06:13:15;;;;;;;21.48;10.30;;;;;;;15.35;100.00;101988.44;5060876;28;20041;-65
2023/10/07 06:16:04;;;;;;;20.15;10.18;;;;;;;15.37;100.00;101985.41;5061519;28;20041;-65
2023/10/07 06:18:54;;;;;;;17.13;8.68;;;;;;;15.35;100.00;101988.44;5075726;28;20513;-64
2023/10/07 06:21:50;;;;;;;20.38;8.15;;;;;;;15.37;100.00;101986.25;5074897;28;20610;-64
2023/10/07 06:24:41;;;;;;;15.75;8.07;;;;;;;15.38;100.00;101995.31;5058812;28;20041;-67
2023/10/07 06:27:29;;;;;;;20.45;9.10;;;;;;;15.36;100.00;101984.56;5060065;28;20048;-66
2023/10/07 06:30:20;;;;;;;19.65;9.05;;;;;;;15.40;100.00;101995.84;5060190;28;20053;-66
2023/10/07 06:33:12;;;;;;;18.25;9.13;;;;;;;15.38;100.00;101996.13;5075702;28;20045;-66
2023/10/07 06:36:00;;;;;;;19.48;9.10;;;;;;;15.39;100.00;102000.50;5077069;28;20389;-66
2023/10/07 06:38:58;;;;;;;14.57;7.18;;;;;;;15.39;100.00;101999.69;5075555;28;20082;-66
2023/10/07 06:41:46;;;;;;;20.48;8.90;;;;;;;15.38;100.00;102006.28;5078116;28;20048;-65
2023/10/07 06:44:34;;;;;;;18.52;9.10;;;;;;;15.38;100.00;102004.34;5059740;28;20044;-66
2023/10/07 06:47:24;;;;;;;15.07;6.57;;;;;;;15.41;100.00;102000.25;5069847;28;20063;-66
2023/10/07 06:50:27;;;;;;;18.55;7.88;;;;;;;15.41;100.00;101997.50;5075905;28;20052;-67
2023/10/07 06:53:22;;;;;;;14.73;6.93;;;;;;;15.43;100.00;101989.81;5060636;28;20448;-67
2023/10/07 06:56:20;;;;;;;24.27;9.18;;;;;;;15.43;100.00;102006.28;5053805;28;20048;-65
2023/10/07 06:59:08;;;;;;;17.25;8.23;;;;;;;15.45;100.00;102017.84;5074930;28;20128;-66
2023/10/07 07:01:57;;;;;;;20.10;9.52;;;;;;;15.44;100.00;102027.16;5059513;28;20074;-66
2023/10/07 07:04:46;;;;;;;19.77;9.20;;;;;;;15.45;100.00;102034.31;5061109;28;20057;-66
2023/10/07 07:07:37;;;;;;;18.05;7.65;;;;;;;15.47;100.00;102023.88;5075130;28;20048;-66
2023/10/07 07:10:27;;;;;;;14.30;7.72;;;;;;;15.46;100.00;102025.78;5075179;28;20048;-66
2023/10/07 07:13:18;;;;;;;17.77;7.75;;;;;;;15.46;100.00;102017.53;5074549;28;20128;-66
2023/10/07 07:16:06;;;;;;;15.05;6.78;;;;;;;15.47;100.00;102010.97;5075346;28;20126;-66
2023/10/07 07:18:59;;;;;;;14.90;6.85;;;;;;;15.48;100.00;102006.28;5073812;28;20052;-66
2023/10/07 07:21:48;;;;;;;16.73;7.50;;;;;;;15.49;100.00;102025.25;5060148;28;20530;-67
2023/10/07 07:24:36;;;;;;;15.30;7.13;;;;;;;15.51;100.00;102011.25;5062395;28;20052;-66
2023/10/07 07:27:25;;;;;;;17.60;6.47;;;;;;;15.53;100.00;102015.34;5074902;28;20084;-65
2023/10/07 07:30:19;;;;;;;16.15;7.55;;;;;;;15.54;100.00;102017.03;5059847;28;20136;-65
2023/10/07 07:33:08;;;;;;;14.40;6.53;;;;;;;15.58;100.00;102022.78;5045124;28;20045;-67
2023/10/07 07:35:57;;;;;;;15.63;6.75;;;;;;;15.59;100.00;102020.88;5047356;28;20040;-66
2023/10/07 07:38:46;;;;;;;15.98;7.25;;;;;;;15.62;100.00;102023.91;5053402;28;20128;-67
2023/10/07 07:41:34;;;;;;;19.08;7.18;;;;;;;15.63;100.00;102024.72;5026613;28;20064;-65
2023/10/07 07:44:32;;;;;;;14.45;6.88;;;;;;;15.64;100.00;102026.38;5060376;28;20048;-66
2023/10/07 07:47:20;;;;;;;16.95;7.15;;;;;;;15.67;100.00;102015.66;5047393;28;20045;-67
2023/10/07 07:50:09;;;;;;;19.00;7.63;;;;;;;15.71;100.00;102026.97;5072816;28;20051;-66
2023/10/07 07:53:06;;;;;;;14.52;6.55;;;;;;;15.72;100.00;102015.69;5045638;28;20044;-66
2023/10/07 07:55:56;;;;;;;16.20;6.57;;;;;;;15.76;100.00;102014.06;5072976;28;20048;-67
2023/10/07 07:58:48;;;;;;;15.75;7.50;;;;;;;15.80;100.00;102036.31;5044896;28;20556;-66
2023/10/07 08:01:38;;;;;;;17.35;7.57;;;;;;;15.87;100.00;102041.53;5073820;28;20079;-65
2023/10/07 08:04:39;;;;;;;20.25;7.13;;;;;;;15.89;100.00;102050.34;5073328;28;20048;-65
2023/10/07 08:07:28;;;;;;;12.93;6.07;;;;;;;15.89;100.00;102044.84;5072451;28;20045;-67
2023/10/07 08:10:20;;;;;;;15.80;7.00;;;;;;;15.88;100.00;102054.19;5068870;28;20079;-66
2023/10/07 08:13:08;;;;;;;16.05;6.50;;;;;;;15.87;100.00;102050.59;5073218;28;20190;-66
2023/10/07 08:15:56;;;;;;;16.40;6.93;;;;;;;15.88;100.00;102054.19;5053274;28;20097;-66
2023/10/07 08:18:54;;;;;;;14.93;6.45;;;;;;;15.89;100.00;102050.34;5040267;28;20103;-65
2023/10/07 08:21:45;;;;;;;16.98;7.18;;;;;;;15.90;100.00;102044.59;5039322;28;20041;-66
2023/10/07 08:24:39;;;;;;;15.15;6.45;;;;;;;15.94;100.00;102050.34;5067722;28;20036;-66
2023/10/07 08:27:49;;;;;;;20.00;7.38;;;;;;;15.94;100.00;102042.91;5035016;28;20472;-65
2023/10/07 08:30:38;;;;;;;16.38;6.78;;;;;;;15.96;100.00;102037.97;5038490;28;20037;-65
2023/10/07 08:33:32;;;;;;;16.35;7.43;;;;;;;15.96;100.00;102032.47;5052439;28;20092;-66
2023/10/07 08:36:28;;;;;;;16.58;6.57;;;;;;;16.00;100.00;102040.19;5051572;28;20053;-66
2023/10/07 08:39:25;;;;;;;18.08;7.10;;;;;;;16.02;100.00;102033.31;5053947;28;20041;-65
2023/10/07 08:42:24;;;;;;;16.65;6.80;;;;;;;16.04;100.00;102036.59;5052283;28;20045;-66
2023/10/07 08:45:15;;;;;;;15.10;7.30;;;;;;;16.07;100.00;102038.81;5047370;28;20259;-66
2023/10/07 08:51:24;;;;;;;20.45;7.57;;;;;;;16.14;100.00;102028.38;5046468;28;20057;-66
2023/10/07 08:54:19;;;;;;;14.90;6.38;;;;;;;16.17;100.00;102024.22;5050371;28;20052;-67
2023/10/07 08:57:16;;;;;;;15.93;6.68;;;;;;;16.21;100.00;102039.09;5052022;28;20044;-66
2023/10/07 09:00:11;;;;;;;16.27;7.00;;;;;;;16.23;100.00;102027.78;5051901;28;20057;-65
2023/10/07 09:02:59;;;;;;;;;;;;;;;16.27;100.00;102028.91;5046295;28;20407;-65
2023/10/07 09:05:48;;;;;;;13.95;6.15;;;;;;;16.30;100.00;102031.09;5024154;28;20300;-65
2023/10/07 09:08:37;;;;;;;17.63;7.50;;;;;;;16.34;100.00;102026.69;5045527;28;20041;-66
2023/10/07 09:11:27;;;;;;;20.08;7.93;;;;;;;16.38;100.00;102036.03;5051608;28;20045;-64
2023/10/07 09:14:18;;;;;;;17.63;8.05;;;;;;;16.44;100.00;102023.91;5039610;28;20475;-64
2023/10/07 09:17:09;;;;;;;20.70;7.40;;;;;;;16.48;100.00;102021.44;5064917;28;20386;-65
2023/10/07 09:20:01;;;;;;;13.63;6.40;;;;;;;16.50;100.00;102016.47;5067526;28;20570;-65
2023/10/07 09:22:53;;;;;;;17.67;6.38;;;;;;;16.50;100.00;102006.31;5065838;28;20048;-64
2023/10/07 09:25:46;;;;;;;16.17;6.85;;;;;;;16.52;100.00;102009.56;5052401;28;20061;-66
2023/10/07 09:28:38;;;;;;;13.65;6.80;;;;;;;16.57;100.00;102017.00;5046756;28;20056;-64
2023/10/07 09:31:30;;;;;;;19.20;7.30;;;;;;;16.61;100.00;102016.16;5050248;28;20054;-58
2023/10/07 09:34:30;;;;;;;17.63;7.53;;;;;;;16.67;100.00;102011.47;5023089;28;20045;-63
2023/10/07 09:37:21;;;;;;;18.45;7.32;;;;;;;16.71;100.00;102014.47;5049150;28;20095;-66
2023/10/07 09:40:53;;;;;;;16.05;7.03;;;;;;;16.73;100.00;102015.84;5036440;28;20184;-66
2023/10/07 09:43:27;;;;;;;21.60;8.40;;;;;;;16.80;100.00;102016.41;5036935;28;20049;-66
2023/10/07 09:46:19;;;;;;;17.30;7.15;;;;;;;16.83;100.00;102017.78;5032637;28;20164;-67
2023/10/07 09:49:25;;;;;;;18.40;7.55;;;;;;;16.86;100.00;102010.88;5035966;28;20132;-65
2023/10/07 09:52:17;;;;;;;15.65;7.85;;;;;;;16.89;100.00;102018.59;5033864;28;20050;-66
2023/10/07 09:55:31;;;;;;;18.58;7.90;;;;;;;16.92;100.00;102010.59;5020588;28;20437;-68
2023/10/07 09:58:24;;;;;;;15.30;7.20;;;;;;;16.93;100.00;102012.25;5017687;28;20504;-67
2023/10/07 10:01:38;;;;;;;17.33;7.03;;;;;;;16.95;100.00;102012.75;5025176;28;20060;-66
2023/10/07 10:04:49;;;;;;;15.30;7.47;;;;;;;16.96;100.00;102019.94;5029219;28;20511;-66
2023/10/07 10:07:49;;;;;;;17.90;7.25;;;;;;;17.01;100.00;102017.16;5003055;28;20058;-67
2023/10/07 10:10:44;;;;;;;14.57;7.03;;;;;;;17.04;100.00;102035.84;5033295;28;20504;-66
2023/10/07 10:16:38;;;;;;;19.95;7.78;;;;;;;17.12;100.00;102037.19;5015460;28;19928;-65
2023/10/07 10:19:28;;;;;;;19.50;7.93;;;;;;;17.19;100.00;102047.91;5020422;28;20045;-63
2023/10/07 10:22:24;;;;;;;17.63;8.27;;;;;;;17.21;100.00;102042.94;5034194;28;20088;-65
2023/10/07 10:25:25;;;;;;;;;;;;;;;17.25;100.00;102049.56;5034282;28;20086;-66
2023/10/07 10:28:27;;;;;;;15.73;8.52;;;;;;;17.28;100.00;102043.47;5053571;28;19925;-65
2023/10/07 10:31:21;;;;;;;23.13;9.10;;;;;;;17.32;100.00;102050.06;5056094;28;20047;-66
2023/10/07 10:34:14;;;;;;;18.88;7.90;;;;;;;17.35;100.00;102049.50;5070936;28;20120;-66
2023/10/07 10:37:06;;;;;;;18.83;7.63;;;;;;;17.40;100.00;102043.94;5058621;28;20049;-66
2023/10/07 10:40:14;;;;;;;13.93;6.22;;;;;;;17.42;100.00;102038.97;5072624;28;20119;-64
2023/10/07 10:43:04;;;;;;;15.43;7.10;;;;;;;17.44;100.00;102045.03;5060493;28;20048;-67
2023/10/07 10:46:05;;;;;;;15.23;7.47;;;;;;;17.48;100.00;102041.69;5060819;28;20133;-66
2023/10/07 10:48:54;;;;;;;18.25;7.30;;;;;;;17.50;100.00;102045.00;5074826;28;20508;-65
2023/10/07 10:51:50;;;;;;;15.32;6.55;;;;;;;17.52;100.00;102042.78;5059097;28;20045;-66
2023/10/07 10:54:42;;;;;;;18.90;8.00;;;;;;;17.54;100.00;102046.09;5072048;28;20555;-64
2023/10/07 10:57:30;;;;;;;17.15;6.95;;;;;;;17.57;100.00;102037.25;5074485;28;20063;-64
2023/10/07 11:00:28;;;;;;;21.45;8.00;;;;;;;17.61;100.00;102036.38;5072591;28;20044;-63
2023/10/07 11:03:20;;;;;;;21.20;8.27;;;;;;;17.65;100.00;102037.47;5060481;28;20045;-64
2023/10/07 11:06:11;;;;;;;16.83;7.20;;;;;;;17.69;100.00;102032.19;5061156;28;20045;-64
2023/10/07 11:09:03;;;;;;;16.90;6.55;;;;;;;17.80;100.00;102033.81;5060439;28;20052;-65
2023/10/07 11:11:55;;;;;;;20.23;7.38;;;;;;;17.84;100.00;102034.84;5074585;28;20034;-64
2023/10/07 11:14:44;;;;;;;15.68;7.30;;;;;;;17.89;100.00;102020.22;4349557;28;10000464;-64
2023/10/07 11:17:32;;;;;;;18.77;7.53;;;;;;;17.93;100.00;102026.00;5037229;28;20049;-66
2023/10/07 11:20:24;;;;;;;13.65;6.32;;;;;;;17.95;100.00;102021.00;5051727;28;20417;-65
2023/10/07 11:23:16;;;;;;;18.83;7.95;;;;;;;18.00;100.00;102012.69;5052902;28;20179;-65
2023/10/07 11:26:08;;;;;;;15.15;7.18;;;;;;;18.01;100.00;102017.91;5049751;28;20084;-64
2023/10/07 11:28:56;;;;;;;16.92;8.20;;;;;;;18.04;100.00;102019.28;5023644;28;20052;-64
2023/10/07 11:31:46;;;;;;;17.77;7.68;;;;;;;18.08;100.00;102017.56;5050327;28;20052;-65
2023/10/07 11:34:40;;;;;;;19.05;8.20;;;;;;;18.08;100.00;102023.91;5069506;28;20041;-65
2023/10/07 11:37:28;;;;;;;18.15;7.55;;;;;;;18.13;100.00;102023.03;5056064;28;20063;-65
2023/10/07 11:40:19;;;;;;;15.68;7.35;;;;;;;18.18;100.00;102034.03;5068883;28;20197;-64
2023/10/07 11:43:11;;;;;;;20.88;8.18;;;;;;;18.26;100.00;102025.13;5050784;28;20063;-66
2023/10/07 11:45:59;;;;;;;18.33;7.38;;;;;;;18.31;100.00;102027.84;5058105;28;20048;-65
2023/10/07 11:48:48;;;;;;;18.00;7.43;;;;;;;18.35;100.00;102022.59;5054971;28;20048;-65
2023/10/07 11:51:36;;;;;;;18.85;7.60;;;;;;;18.39;100.00;102031.09;5069687;28;20053;-65
2023/10/07 11:54:24;;;;;;;18.95;7.60;;;;;;;18.39;100.00;102033.84;5053625;28;20045;-65
2023/10/07 11:57:13;;;;;;;18.00;7.00;;;;;;;18.41;100.00;102039.91;5069511;28;20541;-65
2023/10/07 12:00:09;;;;;;;15.70;6.95;;;;;;;18.48;100.00;102029.34;5056016;28;20048;-66
2023/10/07 12:03:00;;;;;;;19.20;7.72;;;;;;;18.55;100.00;102035.34;5048986;28;20053;-64
2023/10/07 12:05:49;;;;;;;17.20;6.43;;;;;;;18.60;100.00;102032.50;5050085;28;20191;-64
2023/10/07 12:08:38;;;;;;;15.88;6.57;;;;;;;18.64;100.00;102029.97;5069074;28;20048;-63
2023/10/07 12:11:26;;;;;;;14.50;6.82;;;;;;;18.66;100.00;102031.31;5070346;28;20041;-65
2023/10/07 12:14:15;;;;;;;17.48;7.00;;;;;;;18.69;100.00;102033.53;5061031;28;20049;-64
2023/10/07 12:17:04;;;;;;;17.08;6.28;;;;;;;18.77;100.00;102034.84;5053313;28;20125;-65
2023/10/07 12:19:53;;;;;;;18.52;7.38;;;;;;;18.82;100.00;102043.06;5069804;28;20424;-66
2023/10/07 12:22:42;;;;;;;16.55;7.03;;;;;;;18.88;100.00;102039.13;5055846;28;20514;-63
2023/10/07 12:25:31;;;;;;;13.88;5.70;;;;;;;18.83;100.00;102025.41;5055322;28;20079;-65
2023/10/07 12:28:20;;;;;;;13.45;6.10;;;;;;;18.88;100.00;102021.72;5068910;28;20044;-64
2023/10/07 12:31:13;;;;;;;14.23;4.93;;;;;;;18.90;100.00;102033.31;5069422;28;20169;-66
2023/10/07 12:34:01;;;;;;;13.30;5.32;;;;;;;18.94;100.00;102043.47;5069731;28;20087;-66
2023/10/07 12:36:52;;;;;;;18.17;6.05;;;;;;;19.01;100.00;102045.88;5070157;28;20045;-66
2023/10/07 12:39:41;;;;;;;15.40;5.35;;;;;;;19.01;100.00;102045.06;5068086;28;20056;-66
2023/10/07 12:42:31;;;;;;;17.55;6.40;;;;;;;19.03;100.00;102042.84;5070094;28;20058;-66
2023/10/07 12:45:20;;;;;;;18.67;6.18;;;;;;;19.07;100.00;102033.66;5068176;28;20060;-65
2023/10/07 12:48:09;;;;;;;17.80;6.78;;;;;;;19.12;100.00;102041.03;5068314;28;20072;-65
2023/10/07 12:50:59;;;;;;;16.10;6.22;;;;;;;19.11;100.00;102040.22;5068814;28;20132;-65
2023/10/07 12:53:47;;;;;;;18.33;6.53;;;;;;;19.17;100.00;102043.75;5055614;28;20063;-65
2023/10/07 12:56:39;;;;;;;18.92;6.43;;;;;;;19.20;100.00;102031.28;5068682;28;20535;-66
2023/10/07 12:59:28;;;;;;;24.13;6.90;;;;;;;19.28;100.00;102033.38;5053616;28;20074;-66
2023/10/07 13:02:17;;;;;;;20.90;5.55;;;;;;;19.28;100.00;102028.66;5067800;28;20080;-65
2023/10/07 13:05:09;;;;;;;20.58;7.28;;;;;;;19.28;100.00;102025.09;5069106;28;20055;-65
2023/10/07 13:07:57;;;;;;;17.08;6.47;;;;;;;19.26;100.00;102010.75;5069068;28;20496;-64
2023/10/07 13:10:45;;;;;;;19.10;6.18;;;;;;;19.33;100.00;102013.94;5062493;28;20135;-65
2023/10/07 13:13:35;;;;;;;22.33;6.32;;;;;;;19.37;100.00;102006.72;5066331;28;20070;-64
2023/10/07 13:16:23;;;;;;;16.90;6.85;;;;;;;19.37;100.00;101992.91;5048944;28;20053;-65
2023/10/07 13:19:11;;;;;;;19.20;6.55;;;;;;;19.41;100.00;102005.00;5036020;28;20270;-65
2023/10/07 13:22:01;;;;;;;16.70;6.78;;;;;;;19.47;100.00;101978.91;5053530;28;20145;-65
2023/10/07 13:24:49;;;;;;;22.90;6.30;;;;;;;19.49;100.00;101996.03;5070105;28;20049;-66
2023/10/07 13:27:39;;;;;;;19.00;6.55;;;;;;;19.56;100.00;102006.72;5068932;28;20053;-65
2023/10/07 13:30:30;;;;;;;19.50;6.43;;;;;;;19.54;100.00;101984.06;5053835;28;20051;-66
2023/10/07 13:33:18;;;;;;;18.63;5.63;;;;;;;19.54;100.00;101975.78;5068799;28;20129;-65
2023/10/07 13:36:07;;;;;;;17.88;5.90;;;;;;;19.59;100.00;101978.47;5068986;28;20052;-65